sensor_id;sensor_type;location;lat;lon;timestamp;temperature;humidity
11700;DHT22;5906;51.660;6.674;2023-08-06T00:01:54;15.90;99.90
11700;DHT22;5906;51.660;6.674;2023-08-06T00:04:21;15.90;99.90
11700;DHT22;5906;51.660;6.674;2023-08-06T00:06:48;15.90;99.90
11700;DHT22;5906;51.660;6.674;2023-08-06T00:09:15;15.80;99.90
11700;DHT22;5906;51.660;6.674;2023-08-06T00:11:44;15.80;99.90
11700;DHT22;5906;51.660;6.674;2023-08-06T00:14:13;15.80;99.90
11700;DHT22;5906;51.660;6.674;2023-08-06T00:16:45;15.90;99.90
11700;DHT22;5906;51.660;6.674;2023-08-06T00:19:12;15.80;99.90
11700;DHT22;5906;51.660;6.674;2023-08-06T00:21:39;15.80;99.90
11700;DHT22;5906;51.660;6.674;2023-08-06T00:24:06;15.70;99.90
11700;DHT22;5906;51.660;6.674;2023-08-06T00:26:32;15.80;99.90
11700;DHT22;5906;51.660;6.674;2023-08-06T00:28:59;15.80;99.90
11700;DHT22;5906;51.660;6.674;2023-08-06T00:31:26;15.80;99.90
11700;DHT22;5906;51.660;6.674;2023-08-06T00:33:53;15.80;99.90
11700;DHT22;5906;51.660;6.674;2023-08-06T00:36:20;15.80;99.90
11700;DHT22;5906;51.660;6.674;2023-08-06T00:38:47;15.90;99.90
11700;DHT22;5906;51.660;6.674;2023-08-06T00:41:14;15.90;99.90
11700;DHT22;5906;51.660;6.674;2023-08-06T00:43:41;16.00;99.90
11700;DHT22;5906;51.660;6.674;2023-08-06T00:46:07;16.00;99.90
11700;DHT22;5906;51.660;6.674;2023-08-06T00:48:34;15.90;99.90
11700;DHT22;5906;51.660;6.674;2023-08-06T00:51:02;15.90;99.90
11700;DHT22;5906;51.660;6.674;2023-08-06T00:53:30;15.90;99.90
11700;DHT22;5906;51.660;6.674;2023-08-06T00:55:57;15.90;99.90
11700;DHT22;5906;51.660;6.674;2023-08-06T00:58:24;15.80;99.90
11700;DHT22;5906;51.660;6.674;2023-08-06T01:00:51;15.80;99.90
11700;DHT22;5906;51.660;6.674;2023-08-06T01:03:18;15.80;99.90
11700;DHT22;5906;51.660;6.674;2023-08-06T01:05:45;15.70;99.90
11700;DHT22;5906;51.660;6.674;2023-08-06T01:11:26;15.60;99.90
11700;DHT22;5906;51.660;6.674;2023-08-06T01:14:28;15.70;99.90
11700;DHT22;5906;51.660;6.674;2023-08-06T01:16:58;15.70;99.90
11700;DHT22;5906;51.660;6.674;2023-08-06T01:19:25;15.70;99.90
11700;DHT22;5906;51.660;6.674;2023-08-06T01:21:52;15.70;99.90
11700;DHT22;5906;51.660;6.674;2023-08-06T01:24:19;15.60;99.90
11700;DHT22;5906;51.660;6.674;2023-08-06T01:26:54;15.60;99.90
11700;DHT22;5906;51.660;6.674;2023-08-06T01:29:30;15.60;99.90
11700;DHT22;5906;51.660;6.674;2023-08-06T01:31:58;15.80;99.90
11700;DHT22;5906;51.660;6.674;2023-08-06T01:34:28;15.80;99.90
11700;DHT22;5906;51.660;6.674;2023-08-06T01:37:00;15.80;99.90
11700;DHT22;5906;51.660;6.674;2023-08-06T01:39:28;15.80;99.90
11700;DHT22;5906;51.660;6.674;2023-08-06T01:41:55;15.70;99.90
11700;DHT22;5906;51.660;6.674;2023-08-06T01:44:21;15.70;99.90
11700;DHT22;5906;51.660;6.674;2023-08-06T01:46:48;15.80;99.90
11700;DHT22;5906;51.660;6.674;2023-08-06T01:49:15;15.80;99.90
11700;DHT22;5906;51.660;6.674;2023-08-06T01:51:42;15.70;99.90
11700;DHT22;5906;51.660;6.674;2023-08-06T01:54:09;15.80;99.90
11700;DHT22;5906;51.660;6.674;2023-08-06T01:56:36;15.80;99.90
11700;DHT22;5906;51.660;6.674;2023-08-06T01:59:02;15.80;99.90
11700;DHT22;5906;51.660;6.674;2023-08-06T02:01:31;15.80;99.90
11700;DHT22;5906;51.660;6.674;2023-08-06T02:03:58;15.80;99.90
11700;DHT22;5906;51.660;6.674;2023-08-06T02:06:25;15.80;99.90
11700;DHT22;5906;51.660;6.674;2023-08-06T02:08:51;15.80;99.90
11700;DHT22;5906;51.660;6.674;2023-08-06T02:11:19;15.80;99.90
11700;DHT22;5906;51.660;6.674;2023-08-06T02:13:46;15.80;99.90
11700;DHT22;5906;51.660;6.674;2023-08-06T02:16:13;15.80;99.90
11700;DHT22;5906;51.660;6.674;2023-08-06T02:18:40;15.80;99.90
11700;DHT22;5906;51.660;6.674;2023-08-06T02:21:07;15.80;99.90
11700;DHT22;5906;51.660;6.674;2023-08-06T02:23:34;15.80;99.90
11700;DHT22;5906;51.660;6.674;2023-08-06T02:26:03;16.00;99.90
11700;DHT22;5906;51.660;6.674;2023-08-06T02:28:30;16.00;99.90
11700;DHT22;5906;51.660;6.674;2023-08-06T02:30:57;16.00;99.90
11700;DHT22;5906;51.660;6.674;2023-08-06T02:33:24;16.00;99.90
11700;DHT22;5906;51.660;6.674;2023-08-06T02:35:54;16.00;99.90
11700;DHT22;5906;51.660;6.674;2023-08-06T02:38:24;15.90;99.90
11700;DHT22;5906;51.660;6.674;2023-08-06T02:40:51;15.80;99.90
11700;DHT22;5906;51.660;6.674;2023-08-06T02:43:18;15.80;99.90
11700;DHT22;5906;51.660;6.674;2023-08-06T02:45:45;15.80;99.90
11700;DHT22;5906;51.660;6.674;2023-08-06T02:48:13;15.80;99.90
11700;DHT22;5906;51.660;6.674;2023-08-06T02:50:40;15.80;99.90
11700;DHT22;5906;51.660;6.674;2023-08-06T02:53:08;15.70;99.90
11700;DHT22;5906;51.660;6.674;2023-08-06T02:55:46;15.80;99.90
11700;DHT22;5906;51.660;6.674;2023-08-06T02:58:16;15.80;99.90
11700;DHT22;5906;51.660;6.674;2023-08-06T03:00:44;15.70;99.90
11700;DHT22;5906;51.660;6.674;2023-08-06T03:03:11;15.70;99.90
11700;DHT22;5906;51.660;6.674;2023-08-06T03:05:37;15.60;99.90
11700;DHT22;5906;51.660;6.674;2023-08-06T03:08:04;15.70;99.90
11700;DHT22;5906;51.660;6.674;2023-08-06T03:10:31;15.70;99.90
11700;DHT22;5906;51.660;6.674;2023-08-06T03:12:58;15.70;99.90
11700;DHT22;5906;51.660;6.674;2023-08-06T03:15:25;15.70;99.90
11700;DHT22;5906;51.660;6.674;2023-08-06T03:17:52;15.60;99.90
11700;DHT22;5906;51.660;6.674;2023-08-06T03:20:22;15.60;99.90
11700;DHT22;5906;51.660;6.674;2023-08-06T03:22:49;15.60;99.90
11700;DHT22;5906;51.660;6.674;2023-08-06T03:25:16;15.70;99.90
11700;DHT22;5906;51.660;6.674;2023-08-06T03:27:44;15.70;99.90
11700;DHT22;5906;51.660;6.674;2023-08-06T03:30:12;15.60;99.90
11700;DHT22;5906;51.660;6.674;2023-08-06T03:32:38;15.70;99.90
11700;DHT22;5906;51.660;6.674;2023-08-06T03:35:06;15.70;99.90
11700;DHT22;5906;51.660;6.674;2023-08-06T03:37:33;15.60;99.90
11700;DHT22;5906;51.660;6.674;2023-08-06T03:40:00;15.60;99.90
11700;DHT22;5906;51.660;6.674;2023-08-06T03:42:27;15.60;99.90
11700;DHT22;5906;51.660;6.674;2023-08-06T03:44:53;15.60;99.90
11700;DHT22;5906;51.660;6.674;2023-08-06T03:47:20;15.60;99.90
11700;DHT22;5906;51.660;6.674;2023-08-06T03:49:47;15.50;99.90
11700;DHT22;5906;51.660;6.674;2023-08-06T03:52:15;15.60;99.90
11700;DHT22;5906;51.660;6.674;2023-08-06T03:54:42;15.50;99.90
11700;DHT22;5906;51.660;6.674;2023-08-06T03:57:10;15.50;99.90
11700;DHT22;5906;51.660;6.674;2023-08-06T03:59:37;15.50;99.90
11700;DHT22;5906;51.660;6.674;2023-08-06T04:02:03;15.40;99.90
11700;DHT22;5906;51.660;6.674;2023-08-06T04:04:30;15.50;99.90
11700;DHT22;5906;51.660;6.674;2023-08-06T04:06:57;15.40;99.90
11700;DHT22;5906;51.660;6.674;2023-08-06T04:09:24;15.30;99.90
11700;DHT22;5906;51.660;6.674;2023-08-06T04:11:51;15.30;99.90
11700;DHT22;5906;51.660;6.674;2023-08-06T04:14:18;15.30;99.90
11700;DHT22;5906;51.660;6.674;2023-08-06T04:16:45;15.30;99.90
11700;DHT22;5906;51.660;6.674;2023-08-06T04:19:12;15.30;99.90
11700;DHT22;5906;51.660;6.674;2023-08-06T04:21:39;15.30;99.90
11700;DHT22;5906;51.660;6.674;2023-08-06T04:24:05;15.30;99.90
11700;DHT22;5906;51.660;6.674;2023-08-06T04:26:32;15.30;99.90
11700;DHT22;5906;51.660;6.674;2023-08-06T04:28:59;15.30;99.90
11700;DHT22;5906;51.660;6.674;2023-08-06T04:31:26;15.30;99.90
11700;DHT22;5906;51.660;6.674;2023-08-06T04:33:53;15.30;99.90
11700;DHT22;5906;51.660;6.674;2023-08-06T04:36:20;15.30;99.90
11700;DHT22;5906;51.660;6.674;2023-08-06T04:38:47;15.40;99.90
11700;DHT22;5906;51.660;6.674;2023-08-06T04:41:15;15.40;99.90
11700;DHT22;5906;51.660;6.674;2023-08-06T04:43:42;15.50;99.90
11700;DHT22;5906;51.660;6.674;2023-08-06T04:46:09;15.50;99.90
11700;DHT22;5906;51.660;6.674;2023-08-06T04:48:36;15.50;99.90
11700;DHT22;5906;51.660;6.674;2023-08-06T04:51:03;15.50;99.90
11700;DHT22;5906;51.660;6.674;2023-08-06T04:53:30;15.60;99.90
11700;DHT22;5906;51.660;6.674;2023-08-06T04:55:57;15.70;99.90
11700;DHT22;5906;51.660;6.674;2023-08-06T04:58:24;15.80;99.90
11700;DHT22;5906;51.660;6.674;2023-08-06T05:00:53;15.90;99.90
11700;DHT22;5906;51.660;6.674;2023-08-06T05:03:20;15.80;99.90
11700;DHT22;5906;51.660;6.674;2023-08-06T05:05:48;15.90;99.90
11700;DHT22;5906;51.660;6.674;2023-08-06T05:08:15;15.90;99.90
11700;DHT22;5906;51.660;6.674;2023-08-06T05:10:44;15.90;99.90
11700;DHT22;5906;51.660;6.674;2023-08-06T05:13:11;15.90;99.90
11700;DHT22;5906;51.660;6.674;2023-08-06T05:15:39;15.90;99.90
11700;DHT22;5906;51.660;6.674;2023-08-06T05:18:09;15.90;99.90
11700;DHT22;5906;51.660;6.674;2023-08-06T05:20:40;15.90;99.90
11700;DHT22;5906;51.660;6.674;2023-08-06T05:23:07;16.00;99.90
11700;DHT22;5906;51.660;6.674;2023-08-06T05:25:35;16.10;99.90
11700;DHT22;5906;51.660;6.674;2023-08-06T05:28:02;16.20;99.90
11700;DHT22;5906;51.660;6.674;2023-08-06T05:30:30;16.30;99.90
11700;DHT22;5906;51.660;6.674;2023-08-06T05:32:57;16.30;99.90
11700;DHT22;5906;51.660;6.674;2023-08-06T05:35:24;16.40;99.90
11700;DHT22;5906;51.660;6.674;2023-08-06T05:37:52;16.50;99.90
11700;DHT22;5906;51.660;6.674;2023-08-06T05:40:19;16.50;99.90
11700;DHT22;5906;51.660;6.674;2023-08-06T05:42:46;16.60;99.90
11700;DHT22;5906;51.660;6.674;2023-08-06T05:45:14;16.60;99.90
11700;DHT22;5906;51.660;6.674;2023-08-06T05:47:41;16.80;99.90
11700;DHT22;5906;51.660;6.674;2023-08-06T05:50:08;16.90;99.90
11700;DHT22;5906;51.660;6.674;2023-08-06T05:52:36;17.10;99.90
11700;DHT22;5906;51.660;6.674;2023-08-06T05:55:03;17.20;99.90
11700;DHT22;5906;51.660;6.674;2023-08-06T05:57:30;17.30;99.90
11700;DHT22;5906;51.660;6.674;2023-08-06T05:59:57;17.40;99.90
11700;DHT22;5906;51.660;6.674;2023-08-06T06:02:24;17.50;99.90
11700;DHT22;5906;51.660;6.674;2023-08-06T06:04:51;17.70;99.90
11700;DHT22;5906;51.660;6.674;2023-08-06T06:07:18;17.80;99.90
11700;DHT22;5906;51.660;6.674;2023-08-06T06:09:46;17.80;99.90
11700;DHT22;5906;51.660;6.674;2023-08-06T06:12:13;17.90;99.90
11700;DHT22;5906;51.660;6.674;2023-08-06T06:14:40;18.00;99.90
11700;DHT22;5906;51.660;6.674;2023-08-06T06:17:07;18.10;99.90
11700;DHT22;5906;51.660;6.674;2023-08-06T06:19:34;18.10;99.90
11700;DHT22;5906;51.660;6.674;2023-08-06T06:22:01;18.10;99.90
11700;DHT22;5906;51.660;6.674;2023-08-06T06:24:28;18.20;99.90
11700;DHT22;5906;51.660;6.674;2023-08-06T06:26:55;18.30;99.90
11700;DHT22;5906;51.660;6.674;2023-08-06T06:29:22;18.30;99.90
11700;DHT22;5906;51.660;6.674;2023-08-06T06:31:49;18.20;99.90
11700;DHT22;5906;51.660;6.674;2023-08-06T06:34:17;18.20;99.90
11700;DHT22;5906;51.660;6.674;2023-08-06T06:36:44;18.20;99.90
11700;DHT22;5906;51.660;6.674;2023-08-06T06:39:11;18.10;99.90
11700;DHT22;5906;51.660;6.674;2023-08-06T06:41:38;18.10;99.90
11700;DHT22;5906;51.660;6.674;2023-08-06T06:44:06;18.20;99.90
11700;DHT22;5906;51.660;6.674;2023-08-06T06:46:32;18.40;99.90
11700;DHT22;5906;51.660;6.674;2023-08-06T06:48:59;18.50;99.90
11700;DHT22;5906;51.660;6.674;2023-08-06T06:51:26;18.50;99.90
11700;DHT22;5906;51.660;6.674;2023-08-06T06:53:53;18.60;99.90
11700;DHT22;5906;51.660;6.674;2023-08-06T06:56:21;18.80;99.90
11700;DHT22;5906;51.660;6.674;2023-08-06T06:58:49;18.80;99.90
11700;DHT22;5906;51.660;6.674;2023-08-06T07:01:16;19.00;99.90
11700;DHT22;5906;51.660;6.674;2023-08-06T07:03:43;19.10;99.90
11700;DHT22;5906;51.660;6.674;2023-08-06T07:06:10;19.20;99.90
11700;DHT22;5906;51.660;6.674;2023-08-06T07:08:38;19.40;99.90
11700;DHT22;5906;51.660;6.674;2023-08-06T07:11:06;19.50;99.90
11700;DHT22;5906;51.660;6.674;2023-08-06T07:13:34;19.80;99.90
11700;DHT22;5906;51.660;6.674;2023-08-06T07:16:01;19.90;99.90
11700;DHT22;5906;51.660;6.674;2023-08-06T07:18:28;20.20;99.90
11700;DHT22;5906;51.660;6.674;2023-08-06T07:20:56;20.40;1.00
11700;DHT22;5906;51.660;6.674;2023-08-06T07:23:24;20.40;1.00
11700;DHT22;5906;51.660;6.674;2023-08-06T07:25:52;20.50;1.00
11700;DHT22;5906;51.660;6.674;2023-08-06T07:28:18;20.50;1.00
11700;DHT22;5906;51.660;6.674;2023-08-06T07:30:46;20.70;1.00
11700;DHT22;5906;51.660;6.674;2023-08-06T07:33:13;20.70;1.00
11700;DHT22;5906;51.660;6.674;2023-08-06T07:35:42;20.60;99.90
11700;DHT22;5906;51.660;6.674;2023-08-06T07:38:10;20.60;1.00
11700;DHT22;5906;51.660;6.674;2023-08-06T07:40:38;20.50;1.00
11700;DHT22;5906;51.660;6.674;2023-08-06T07:43:05;20.40;1.00
11700;DHT22;5906;51.660;6.674;2023-08-06T07:45:33;20.30;26.80
11700;DHT22;5906;51.660;6.674;2023-08-06T07:48:02;20.40;1.00
11700;DHT22;5906;51.660;6.674;2023-08-06T07:50:29;20.30;85.40
11700;DHT22;5906;51.660;6.674;2023-08-06T07:52:56;20.20;1.00
11700;DHT22;5906;51.660;6.674;2023-08-06T07:55:23;20.20;1.00
11700;DHT22;5906;51.660;6.674;2023-08-06T07:57:50;20.20;1.00
11700;DHT22;5906;51.660;6.674;2023-08-06T08:00:17;20.10;1.00
11700;DHT22;5906;51.660;6.674;2023-08-06T08:02:44;20.10;1.00
11700;DHT22;5906;51.660;6.674;2023-08-06T08:05:13;20.10;98.30
11700;DHT22;5906;51.660;6.674;2023-08-06T08:07:40;20.10;99.90
11700;DHT22;5906;51.660;6.674;2023-08-06T08:10:07;20.10;1.00
11700;DHT22;5906;51.660;6.674;2023-08-06T08:12:34;20.10;99.90
11700;DHT22;5906;51.660;6.674;2023-08-06T08:15:02;20.20;1.00
11700;DHT22;5906;51.660;6.674;2023-08-06T08:17:30;20.30;1.00
11700;DHT22;5906;51.660;6.674;2023-08-06T08:19:57;20.40;99.90
11700;DHT22;5906;51.660;6.674;2023-08-06T08:22:24;20.50;99.90
11700;DHT22;5906;51.660;6.674;2023-08-06T08:24:50;20.50;1.00
11700;DHT22;5906;51.660;6.674;2023-08-06T08:27:17;20.70;1.00
11700;DHT22;5906;51.660;6.674;2023-08-06T08:29:44;20.60;99.90
11700;DHT22;5906;51.660;6.674;2023-08-06T08:32:11;20.50;99.90
11700;DHT22;5906;51.660;6.674;2023-08-06T08:34:39;20.50;1.00
11700;DHT22;5906;51.660;6.674;2023-08-06T08:37:06;20.50;1.00
11700;DHT22;5906;51.660;6.674;2023-08-06T08:39:33;20.40;99.90
11700;DHT22;5906;51.660;6.674;2023-08-06T08:42:00;20.50;99.90
11700;DHT22;5906;51.660;6.674;2023-08-06T08:44:30;20.30;1.00
11700;DHT22;5906;51.660;6.674;2023-08-06T08:46:59;20.20;1.00
11700;DHT22;5906;51.660;6.674;2023-08-06T08:49:27;20.30;1.00
11700;DHT22;5906;51.660;6.674;2023-08-06T08:51:55;20.40;99.90
11700;DHT22;5906;51.660;6.674;2023-08-06T08:54:26;20.50;1.00
11700;DHT22;5906;51.660;6.674;2023-08-06T08:56:54;20.60;1.00
11700;DHT22;5906;51.660;6.674;2023-08-06T08:59:22;20.40;99.90
11700;DHT22;5906;51.660;6.674;2023-08-06T09:01:49;20.30;1.00
11700;DHT22;5906;51.660;6.674;2023-08-06T09:04:21;20.30;1.00
11700;DHT22;5906;51.660;6.674;2023-08-06T09:06:52;20.40;99.90
11700;DHT22;5906;51.660;6.674;2023-08-06T09:09:31;20.30;1.00
11700;DHT22;5906;51.660;6.674;2023-08-06T09:12:01;20.30;1.00
11700;DHT22;5906;51.660;6.674;2023-08-06T09:14:29;20.30;1.00
11700;DHT22;5906;51.660;6.674;2023-08-06T09:16:56;20.40;99.90
11700;DHT22;5906;51.660;6.674;2023-08-06T09:19:24;20.50;1.00
11700;DHT22;5906;51.660;6.674;2023-08-06T09:21:55;20.50;1.00
11700;DHT22;5906;51.660;6.674;2023-08-06T09:24:23;20.40;10.90
11700;DHT22;5906;51.660;6.674;2023-08-06T09:26:50;20.30;1.00
11700;DHT22;5906;51.660;6.674;2023-08-06T09:29:17;20.20;1.00
11700;DHT22;5906;51.660;6.674;2023-08-06T09:31:46;20.20;99.90
11700;DHT22;5906;51.660;6.674;2023-08-06T09:36:52;20.30;8.30
11700;DHT22;5906;51.660;6.674;2023-08-06T09:39:28;20.30;99.90
11700;DHT22;5906;51.660;6.674;2023-08-06T09:41:57;20.50;1.00
11700;DHT22;5906;51.660;6.674;2023-08-06T09:44:26;20.50;99.90
11700;DHT22;5906;51.660;6.674;2023-08-06T09:47:02;20.50;1.00
11700;DHT22;5906;51.660;6.674;2023-08-06T09:51:59;20.80;1.00
11700;DHT22;5906;51.660;6.674;2023-08-06T09:54:27;20.90;1.00
11700;DHT22;5906;51.660;6.674;2023-08-06T09:56:57;20.90;99.90
11700;DHT22;5906;51.660;6.674;2023-08-06T09:59:24;21.10;1.00
11700;DHT22;5906;51.660;6.674;2023-08-06T10:01:54;21.30;99.90
11700;DHT22;5906;51.660;6.674;2023-08-06T10:04:23;21.50;99.90
11700;DHT22;5906;51.660;6.674;2023-08-06T10:06:56;21.70;99.90
11700;DHT22;5906;51.660;6.674;2023-08-06T10:09:24;21.90;1.00
11700;DHT22;5906;51.660;6.674;2023-08-06T10:11:52;22.10;1.00
11700;DHT22;5906;51.660;6.674;2023-08-06T10:14:28;22.30;1.00
11700;DHT22;5906;51.660;6.674;2023-08-06T10:16:57;22.40;1.00
11700;DHT22;5906;51.660;6.674;2023-08-06T10:19:27;22.50;1.00
11700;DHT22;5906;51.660;6.674;2023-08-06T10:22:11;22.50;1.00
11700;DHT22;5906;51.660;6.674;2023-08-06T10:27:29;22.60;1.00
11700;DHT22;5906;51.660;6.674;2023-08-06T10:33:00;22.60;1.00
11700;DHT22;5906;51.660;6.674;2023-08-06T10:37:59;22.50;1.00
11700;DHT22;5906;51.660;6.674;2023-08-06T10:40:26;22.40;1.00
11700;DHT22;5906;51.660;6.674;2023-08-06T10:42:53;22.50;1.00
11700;DHT22;5906;51.660;6.674;2023-08-06T10:45:20;22.50;1.00
11700;DHT22;5906;51.660;6.674;2023-08-06T10:47:47;22.50;1.00
11700;DHT22;5906;51.660;6.674;2023-08-06T10:50:16;22.40;1.00
11700;DHT22;5906;51.660;6.674;2023-08-06T10:52:46;22.40;1.00
11700;DHT22;5906;51.660;6.674;2023-08-06T10:55:28;22.50;1.00
11700;DHT22;5906;51.660;6.674;2023-08-06T10:57:56;22.40;1.00
11700;DHT22;5906;51.660;6.674;2023-08-06T11:00:25;22.30;1.00
11700;DHT22;5906;51.660;6.674;2023-08-06T11:02:53;22.20;1.00
11700;DHT22;5906;51.660;6.674;2023-08-06T11:05:21;22.20;1.00
11700;DHT22;5906;51.660;6.674;2023-08-06T11:07:51;22.40;1.00
11700;DHT22;5906;51.660;6.674;2023-08-06T11:10:19;22.40;1.00
11700;DHT22;5906;51.660;6.674;2023-08-06T11:12:46;22.60;1.00
11700;DHT22;5906;51.660;6.674;2023-08-06T11:15:13;22.90;1.00
11700;DHT22;5906;51.660;6.674;2023-08-06T11:17:41;22.90;1.00
11700;DHT22;5906;51.660;6.674;2023-08-06T11:20:09;22.60;1.00
11700;DHT22;5906;51.660;6.674;2023-08-06T11:22:37;22.10;1.00
11700;DHT22;5906;51.660;6.674;2023-08-06T11:25:06;21.90;1.00
11700;DHT22;5906;51.660;6.674;2023-08-06T11:27:37;21.70;1.00
11700;DHT22;5906;51.660;6.674;2023-08-06T11:30:05;21.30;1.00
11700;DHT22;5906;51.660;6.674;2023-08-06T11:32:32;20.90;1.00
11700;DHT22;5906;51.660;6.674;2023-08-06T11:35:09;20.70;1.00
11700;DHT22;5906;51.660;6.674;2023-08-06T11:37:39;20.40;99.90
11700;DHT22;5906;51.660;6.674;2023-08-06T11:40:10;20.30;99.90
11700;DHT22;5906;51.660;6.674;2023-08-06T11:42:38;20.10;1.00
11700;DHT22;5906;51.660;6.674;2023-08-06T11:45:05;20.00;1.00
11700;DHT22;5906;51.660;6.674;2023-08-06T11:47:32;19.90;99.90
11700;DHT22;5906;51.660;6.674;2023-08-06T11:50:00;19.50;99.90
11700;DHT22;5906;51.660;6.674;2023-08-06T11:52:28;19.00;99.90
11700;DHT22;5906;51.660;6.674;2023-08-06T11:55:06;18.70;1.00
11700;DHT22;5906;51.660;6.674;2023-08-06T11:57:36;18.40;1.00
11700;DHT22;5906;51.660;6.674;2023-08-06T12:00:04;18.10;1.00
11700;DHT22;5906;51.660;6.674;2023-08-06T12:02:33;17.80;1.00
11700;DHT22;5906;51.660;6.674;2023-08-06T12:07:47;17.30;99.90
11700;DHT22;5906;51.660;6.674;2023-08-06T12:10:16;17.10;99.90
11700;DHT22;5906;51.660;6.674;2023-08-06T12:12:43;17.00;99.90
11700;DHT22;5906;51.660;6.674;2023-08-06T12:15:10;16.90;99.90
11700;DHT22;5906;51.660;6.674;2023-08-06T12:17:38;17.00;99.90
11700;DHT22;5906;51.660;6.674;2023-08-06T12:20:07;17.00;99.90
11700;DHT22;5906;51.660;6.674;2023-08-06T12:22:35;16.90;99.90
11700;DHT22;5906;51.660;6.674;2023-08-06T12:25:06;16.90;99.90
11700;DHT22;5906;51.660;6.674;2023-08-06T12:27:35;16.90;99.90
11700;DHT22;5906;51.660;6.674;2023-08-06T12:30:03;17.00;99.90
11700;DHT22;5906;51.660;6.674;2023-08-06T12:32:31;17.10;99.90
11700;DHT22;5906;51.660;6.674;2023-08-06T12:34:59;17.20;99.90
11700;DHT22;5906;51.660;6.674;2023-08-06T12:37:28;17.20;99.90
11700;DHT22;5906;51.660;6.674;2023-08-06T12:39:55;17.20;99.90
11700;DHT22;5906;51.660;6.674;2023-08-06T12:42:23;17.20;99.90
11700;DHT22;5906;51.660;6.674;2023-08-06T12:44:51;17.10;99.90
11700;DHT22;5906;51.660;6.674;2023-08-06T12:47:20;17.10;99.90
11700;DHT22;5906;51.660;6.674;2023-08-06T12:49:50;17.00;99.90
11700;DHT22;5906;51.660;6.674;2023-08-06T12:52:23;17.10;99.90
11700;DHT22;5906;51.660;6.674;2023-08-06T12:54:53;17.10;99.90
11700;DHT22;5906;51.660;6.674;2023-08-06T12:57:29;17.20;99.90
11700;DHT22;5906;51.660;6.674;2023-08-06T13:00:16;17.20;99.90
11700;DHT22;5906;51.660;6.674;2023-08-06T13:02:43;17.20;99.90
11700;DHT22;5906;51.660;6.674;2023-08-06T13:05:10;17.20;99.90
11700;DHT22;5906;51.660;6.674;2023-08-06T13:07:38;17.40;99.90
11700;DHT22;5906;51.660;6.674;2023-08-06T13:10:05;17.40;99.90
11700;DHT22;5906;51.660;6.674;2023-08-06T13:12:32;17.50;99.90
11700;DHT22;5906;51.660;6.674;2023-08-06T13:15:00;17.40;99.90
11700;DHT22;5906;51.660;6.674;2023-08-06T13:17:27;17.40;99.90
11700;DHT22;5906;51.660;6.674;2023-08-06T13:19:57;17.30;99.90
11700;DHT22;5906;51.660;6.674;2023-08-06T13:22:24;17.30;99.90
11700;DHT22;5906;51.660;6.674;2023-08-06T13:24:59;17.30;99.90
11700;DHT22;5906;51.660;6.674;2023-08-06T13:27:35;17.30;99.90
11700;DHT22;5906;51.660;6.674;2023-08-06T13:30:02;17.10;99.90
11700;DHT22;5906;51.660;6.674;2023-08-06T13:32:30;17.20;99.90
11700;DHT22;5906;51.660;6.674;2023-08-06T13:34:59;17.10;99.90
11700;DHT22;5906;51.660;6.674;2023-08-06T13:37:26;17.00;99.90
11700;DHT22;5906;51.660;6.674;2023-08-06T13:39:53;17.10;99.90
11700;DHT22;5906;51.660;6.674;2023-08-06T13:42:22;17.10;99.90
11700;DHT22;5906;51.660;6.674;2023-08-06T13:44:49;17.20;99.90
11700;DHT22;5906;51.660;6.674;2023-08-06T13:47:16;17.40;99.90
11700;DHT22;5906;51.660;6.674;2023-08-06T13:49:44;17.50;99.90
11700;DHT22;5906;51.660;6.674;2023-08-06T13:52:11;17.70;99.90
11700;DHT22;5906;51.660;6.674;2023-08-06T13:54:47;17.70;99.90
11700;DHT22;5906;51.660;6.674;2023-08-06T13:57:14;17.80;99.90
11700;DHT22;5906;51.660;6.674;2023-08-06T13:59:44;17.80;37.40
11700;DHT22;5906;51.660;6.674;2023-08-06T14:02:11;17.70;93.30
11700;DHT22;5906;51.660;6.674;2023-08-06T14:04:38;17.60;1.00
11700;DHT22;5906;51.660;6.674;2023-08-06T14:07:07;17.60;99.90
11700;DHT22;5906;51.660;6.674;2023-08-06T14:09:34;17.60;99.90
11700;DHT22;5906;51.660;6.674;2023-08-06T14:12:01;17.60;99.90
11700;DHT22;5906;51.660;6.674;2023-08-06T14:14:29;17.50;27.60
11700;DHT22;5906;51.660;6.674;2023-08-06T14:16:56;17.30;1.00
11700;DHT22;5906;51.660;6.674;2023-08-06T14:19:24;17.20;1.00
11700;DHT22;5906;51.660;6.674;2023-08-06T14:21:52;17.10;33.20
11700;DHT22;5906;51.660;6.674;2023-08-06T14:24:19;17.10;99.90
11700;DHT22;5906;51.660;6.674;2023-08-06T14:26:46;17.10;96.90
11700;DHT22;5906;51.660;6.674;2023-08-06T14:29:14;17.10;99.90
11700;DHT22;5906;51.660;6.674;2023-08-06T14:31:42;17.20;99.90
11700;DHT22;5906;51.660;6.674;2023-08-06T14:34:10;17.10;99.90
11700;DHT22;5906;51.660;6.674;2023-08-06T14:36:37;17.20;99.90
11700;DHT22;5906;51.660;6.674;2023-08-06T14:39:04;17.40;99.90
11700;DHT22;5906;51.660;6.674;2023-08-06T14:41:32;17.50;1.00
11700;DHT22;5906;51.660;6.674;2023-08-06T14:43:58;17.70;1.00
11700;DHT22;5906;51.660;6.674;2023-08-06T14:46:25;17.70;1.00
11700;DHT22;5906;51.660;6.674;2023-08-06T14:48:52;17.70;99.90
11700;DHT22;5906;51.660;6.674;2023-08-06T14:51:19;17.90;99.90
11700;DHT22;5906;51.660;6.674;2023-08-06T14:53:47;18.00;99.90
11700;DHT22;5906;51.660;6.674;2023-08-06T14:56:15;18.00;99.90
11700;DHT22;5906;51.660;6.674;2023-08-06T14:58:42;18.00;99.90
11700;DHT22;5906;51.660;6.674;2023-08-06T15:01:09;18.00;99.90
11700;DHT22;5906;51.660;6.674;2023-08-06T15:03:36;18.00;99.90
11700;DHT22;5906;51.660;6.674;2023-08-06T15:06:03;18.00;99.90
11700;DHT22;5906;51.660;6.674;2023-08-06T15:08:31;17.90;99.90
11700;DHT22;5906;51.660;6.674;2023-08-06T15:10:58;18.00;99.90
11700;DHT22;5906;51.660;6.674;2023-08-06T15:13:28;18.10;99.90
11700;DHT22;5906;51.660;6.674;2023-08-06T15:15:56;18.00;99.90
11700;DHT22;5906;51.660;6.674;2023-08-06T15:18:23;18.00;99.90
11700;DHT22;5906;51.660;6.674;2023-08-06T15:20:50;18.00;99.90
11700;DHT22;5906;51.660;6.674;2023-08-06T15:23:17;17.90;99.90
11700;DHT22;5906;51.660;6.674;2023-08-06T15:25:44;17.80;99.90
11700;DHT22;5906;51.660;6.674;2023-08-06T15:28:11;17.60;99.90
11700;DHT22;5906;51.660;6.674;2023-08-06T15:30:38;17.50;99.90
11700;DHT22;5906;51.660;6.674;2023-08-06T15:33:07;17.40;99.90
11700;DHT22;5906;51.660;6.674;2023-08-06T15:35:34;17.30;99.90
11700;DHT22;5906;51.660;6.674;2023-08-06T15:38:01;17.30;99.90
11700;DHT22;5906;51.660;6.674;2023-08-06T15:40:28;17.30;99.90
11700;DHT22;5906;51.660;6.674;2023-08-06T15:42:55;17.20;99.90
11700;DHT22;5906;51.660;6.674;2023-08-06T15:45:22;17.10;99.90
11700;DHT22;5906;51.660;6.674;2023-08-06T15:47:49;17.10;99.90
11700;DHT22;5906;51.660;6.674;2023-08-06T15:50:16;17.10;99.90
11700;DHT22;5906;51.660;6.674;2023-08-06T15:52:43;17.10;99.90
11700;DHT22;5906;51.660;6.674;2023-08-06T15:55:10;17.00;99.90
11700;DHT22;5906;51.660;6.674;2023-08-06T15:57:37;16.90;99.90
11700;DHT22;5906;51.660;6.674;2023-08-06T16:00:05;16.90;99.90
11700;DHT22;5906;51.660;6.674;2023-08-06T16:02:32;16.80;99.90
11700;DHT22;5906;51.660;6.674;2023-08-06T16:05:00;16.70;99.90
11700;DHT22;5906;51.660;6.674;2023-08-06T16:07:27;16.70;99.90
11700;DHT22;5906;51.660;6.674;2023-08-06T16:09:54;16.60;99.90
11700;DHT22;5906;51.660;6.674;2023-08-06T16:12:22;16.60;99.90
11700;DHT22;5906;51.660;6.674;2023-08-06T16:14:49;16.60;99.90